createdAt,value
2022-11-21T00:02:12.793Z,14.17
2022-11-21T00:04:47.675Z,14.11
2022-11-21T00:07:17.260Z,14.06
2022-11-21T00:09:46.799Z,14.02
2022-11-21T00:12:15.494Z,13.96
2022-11-21T00:14:44.697Z,13.91
2022-11-21T00:17:12.578Z,13.86
2022-11-21T00:19:40.185Z,13.81
2022-11-21T00:22:08.706Z,13.73
2022-11-21T00:24:35.752Z,13.71
2022-11-21T00:27:03.316Z,13.67
2022-11-21T00:29:30.370Z,13.62
2022-11-21T00:31:58.518Z,13.57
2022-11-21T00:34:28.024Z,13.53
2022-11-21T00:36:56.303Z,13.49
2022-11-21T00:39:24.927Z,13.44
2022-11-21T00:41:52.627Z,13.38
2022-11-21T00:44:20.576Z,13.34
2022-11-21T00:46:50.014Z,13.29
2022-11-21T00:49:19.177Z,13.25
2022-11-21T00:51:46.417Z,13.21
2022-11-21T00:54:14.361Z,13.18
2022-11-21T00:56:43.436Z,13.14
2022-11-21T00:59:12.650Z,13.10
2022-11-21T01:01:42.736Z,13.05
2022-11-21T01:04:09.836Z,13.01
2022-11-21T01:06:37.789Z,12.97
2022-11-21T01:09:13.581Z,12.93
2022-11-21T01:11:40.456Z,12.88
2022-11-21T01:14:11.040Z,12.86
2022-11-21T01:16:38.214Z,12.81
2022-11-21T01:19:09.812Z,12.77
2022-11-21T01:21:56.424Z,12.73
2022-11-21T01:24:26.610Z,12.69
2022-11-21T01:26:56.469Z,12.66
2022-11-21T01:29:30.847Z,12.62
2022-11-21T01:32:02.613Z,12.58
2022-11-21T01:34:31.226Z,12.54
2022-11-21T01:37:01.134Z,12.51
2022-11-21T01:39:34.332Z,12.48
2022-11-21T01:42:07.255Z,12.44
2022-11-21T01:44:37.455Z,12.40
2022-11-21T01:47:11.473Z,12.37
2022-11-21T01:49:49.445Z,12.34
2022-11-21T01:52:21.845Z,12.32
2022-11-21T01:54:50.643Z,12.29
2022-11-21T01:57:17.926Z,12.27
2022-11-21T01:59:46.101Z,12.25
2022-11-21T02:02:22.854Z,12.23
2022-11-21T02:04:53.735Z,12.18
2022-11-21T02:07:28.004Z,12.15
2022-11-21T02:09:55.357Z,12.13
2022-11-21T02:12:23.642Z,12.08
2022-11-21T02:14:52.164Z,12.06
2022-11-21T02:17:30.279Z,12.03
2022-11-21T02:19:58.598Z,12.00
2022-11-21T02:22:27.124Z,11.97
2022-11-21T02:24:55.219Z,11.94
2022-11-21T02:27:23.642Z,11.92
2022-11-21T02:29:50.789Z,11.89
2022-11-21T02:32:18.994Z,11.86
2022-11-21T02:35:04.630Z,11.83
2022-11-21T02:37:32.736Z,11.80
2022-11-21T02:39:59.652Z,11.77
2022-11-21T02:42:26.824Z,11.76
2022-11-21T02:44:56.286Z,11.74
2022-11-21T02:47:23.609Z,11.72
2022-11-21T02:49:54.687Z,11.70
2022-11-21T02:52:27.814Z,11.69
2022-11-21T02:54:57.962Z,11.66
2022-11-21T02:57:25.867Z,11.64
2022-11-21T02:59:53.085Z,11.62
2022-11-21T03:02:20.721Z,11.60
2022-11-21T03:04:55.118Z,11.57
2022-11-21T03:07:26.703Z,11.56
2022-11-21T03:09:55.272Z,11.53
2022-11-21T03:12:32.383Z,11.51
2022-11-21T03:15:05.318Z,11.50
2022-11-21T03:17:32.899Z,11.47
2022-11-21T03:20:02.813Z,11.45
2022-11-21T03:22:33.973Z,11.44
2022-11-21T03:25:08.404Z,11.42
2022-11-21T03:27:45.804Z,11.40
2022-11-21T03:30:15.571Z,11.38
2022-11-21T03:32:43.683Z,11.35
2022-11-21T03:35:12.164Z,11.33
2022-11-21T03:37:41.504Z,11.32
2022-11-21T03:40:11.913Z,11.31
2022-11-21T03:42:41.628Z,11.29
2022-11-21T03:45:12.293Z,11.26
2022-11-21T03:47:39.069Z,11.25
2022-11-21T03:50:06.187Z,11.23
2022-11-21T03:52:36.351Z,11.21
2022-11-21T03:55:06.614Z,11.19
2022-11-21T03:57:35.667Z,11.15
2022-11-21T04:00:02.293Z,11.13
2022-11-21T04:02:40.074Z,11.10
2022-11-21T04:05:09.856Z,11.09
2022-11-21T04:07:38.706Z,11.07
2022-11-21T04:10:08.134Z,11.04
2022-11-21T04:12:38.663Z,11.02
2022-11-21T04:15:13.888Z,11.01
2022-11-21T04:17:42.326Z,10.98
2022-11-21T04:20:16.746Z,10.97
2022-11-21T04:22:45.779Z,10.95
2022-11-21T04:25:14.687Z,10.91
2022-11-21T04:27:41.498Z,10.75
2022-11-21T04:30:09.086Z,10.87
2022-11-21T04:32:38.964Z,10.84
2022-11-21T04:35:09.009Z,10.82
2022-11-21T04:37:40.658Z,10.80
2022-11-21T04:40:08.717Z,10.78
2022-11-21T04:42:37.796Z,10.76
2022-11-21T04:45:07.836Z,10.73
2022-11-21T04:47:36.698Z,10.71
2022-11-21T04:50:06.406Z,10.69
2022-11-21T04:52:36.474Z,10.67
2022-11-21T04:55:04.707Z,10.67
2022-11-21T04:57:35.184Z,10.65
2022-11-21T05:00:03.313Z,10.63
2022-11-21T05:02:30.384Z,10.62
2022-11-21T05:04:59.878Z,10.60
2022-11-21T05:07:30.755Z,10.59
2022-11-21T05:10:02.006Z,10.58
2022-11-21T05:12:33.920Z,10.56
2022-11-21T05:15:01.812Z,10.55
2022-11-21T05:17:32.108Z,10.53
2022-11-21T05:20:03.150Z,10.51
2022-11-21T05:22:32.491Z,10.49
2022-11-21T05:24:59.189Z,10.48
2022-11-21T05:27:27.051Z,10.45
2022-11-21T05:29:57.960Z,10.44
2022-11-21T05:32:28.781Z,10.42
2022-11-21T05:34:56.894Z,10.40
2022-11-21T05:37:30.013Z,10.39
2022-11-21T05:39:58.208Z,10.37
2022-11-21T05:42:27.340Z,10.36
2022-11-21T05:44:56.396Z,10.35
2022-11-21T05:47:26.550Z,10.33
2022-11-21T05:49:54.766Z,10.32
2022-11-21T05:52:22.713Z,10.31
2022-11-21T05:54:51.472Z,10.30
2022-11-21T05:57:21.305Z,10.29
2022-11-21T05:59:49.599Z,10.27
2022-11-21T06:02:26.058Z,10.26
2022-11-21T06:04:56.159Z,10.24
2022-11-21T06:07:32.009Z,10.22
2022-11-21T06:10:01.051Z,10.20
2022-11-21T06:12:33.370Z,10.20
2022-11-21T06:15:02.668Z,10.19
2022-11-21T06:17:32.138Z,10.17
2022-11-21T06:19:59.587Z,10.15
2022-11-21T06:22:28.060Z,10.13
2022-11-21T06:24:56.038Z,10.12
2022-11-21T06:27:24.042Z,10.12
2022-11-21T06:29:53.400Z,10.11
2022-11-21T06:32:20.696Z,10.09
2022-11-21T06:34:48.639Z,10.08
2022-11-21T06:37:17.155Z,10.07
2022-11-21T06:39:46.188Z,10.06
2022-11-21T06:42:15.668Z,10.05
2022-11-21T06:44:42.876Z,10.03
2022-11-21T06:47:11.273Z,10.02
2022-11-21T06:49:40.053Z,9.99
2022-11-21T06:52:09.373Z,10.01
2022-11-21T06:54:38.630Z,10.00
2022-11-21T06:57:06.176Z,10.14
2022-11-21T06:59:32.934Z,10.58
2022-11-21T07:02:00.159Z,11.00
2022-11-21T07:04:31.269Z,11.38
2022-11-21T07:06:59.415Z,11.70
2022-11-21T07:09:34.595Z,11.97
2022-11-21T07:12:02.983Z,12.19
2022-11-21T07:14:31.699Z,12.37
2022-11-21T07:17:03.107Z,12.53
2022-11-21T07:19:33.425Z,12.70
2022-11-21T07:22:13.882Z,12.80
2022-11-21T07:24:42.977Z,12.93
2022-11-21T07:27:21.582Z,13.08
2022-11-21T07:29:52.281Z,13.21
2022-11-21T07:32:24.242Z,13.36
2022-11-21T07:34:53.802Z,13.48
2022-11-21T07:37:23.751Z,13.62
2022-11-21T07:39:51.767Z,13.74
2022-11-21T07:42:21.953Z,13.87
2022-11-21T07:44:51.846Z,13.97
2022-11-21T07:47:20.157Z,14.09
2022-11-21T07:49:48.725Z,14.21
2022-11-21T07:52:15.866Z,14.31
2022-11-21T07:54:47.036Z,14.42
2022-11-21T07:57:14.314Z,14.55
2022-11-21T07:59:42.218Z,14.67
2022-11-21T08:02:10.545Z,14.79
2022-11-21T08:04:39.882Z,14.91
2022-11-21T08:07:07.112Z,15.02
2022-11-21T08:09:39.691Z,15.12
2022-11-21T08:12:09.737Z,15.24
2022-11-21T08:14:37.514Z,15.32
2022-11-21T08:17:06.783Z,15.40
2022-11-21T08:19:34.564Z,15.46
2022-11-21T08:22:02.048Z,15.52
2022-11-21T08:24:29.606Z,15.57
2022-11-21T08:27:03.915Z,15.66
2022-11-21T08:29:32.958Z,15.74
2022-11-21T08:32:00.118Z,15.83
2022-11-21T08:34:29.161Z,15.94
2022-11-21T08:37:03.594Z,16.03
2022-11-21T08:39:36.025Z,16.13
2022-11-21T08:42:06.674Z,16.23
2022-11-21T08:44:41.764Z,16.32
2022-11-21T08:47:16.205Z,16.41
2022-11-21T08:49:46.820Z,16.52
2022-11-21T08:52:24.494Z,16.60
2022-11-21T08:55:01.142Z,16.69
2022-11-21T08:57:29.124Z,16.78
2022-11-21T08:59:58.662Z,16.82
2022-11-21T09:02:28.732Z,16.92
2022-11-21T09:04:56.807Z,16.99
2022-11-21T09:07:26.093Z,17.04
2022-11-21T09:09:53.232Z,17.10
2022-11-21T09:12:22.022Z,17.16
2022-11-21T09:14:51.595Z,17.21
2022-11-21T09:17:20.201Z,17.27
2022-11-21T09:19:47.070Z,17.32
2022-11-21T09:22:14.848Z,17.36
2022-11-21T09:24:41.679Z,17.41
2022-11-21T09:27:08.448Z,17.46
2022-11-21T09:29:35.660Z,17.50
2022-11-21T09:32:02.624Z,17.56
2022-11-21T09:34:31.264Z,17.61
2022-11-21T09:36:57.744Z,17.68
2022-11-21T09:39:23.968Z,17.73
2022-11-21T09:41:50.236Z,17.79
2022-11-21T09:44:16.782Z,17.85
2022-11-21T09:46:43.170Z,17.89
2022-11-21T09:49:11.306Z,17.94
2022-11-21T09:51:38.566Z,18.01
2022-11-21T09:54:05.097Z,18.08
2022-11-21T09:56:31.417Z,18.13
2022-11-21T09:58:57.703Z,18.17
2022-11-21T10:01:24.952Z,18.22
2022-11-21T10:03:51.528Z,18.27
2022-11-21T10:06:20.008Z,18.32
2022-11-21T10:08:46.414Z,18.37
2022-11-21T10:11:19.410Z,18.41
2022-11-21T10:13:46.439Z,18.45
2022-11-21T10:16:12.719Z,18.51
2022-11-21T10:18:40.664Z,18.56
2022-11-21T10:21:09.493Z,18.59
2022-11-21T10:23:36.622Z,18.65
2022-11-21T10:26:02.916Z,18.70
2022-11-21T10:28:29.253Z,18.73
2022-11-21T10:30:55.793Z,18.73
2022-11-21T10:33:22.837Z,18.75
2022-11-21T10:35:49.712Z,18.79
2022-11-21T10:38:17.606Z,18.80
2022-11-21T10:40:43.884Z,18.83
2022-11-21T10:43:11.038Z,18.86
2022-11-21T10:45:37.480Z,18.88
2022-11-21T10:48:08.219Z,18.91
2022-11-21T10:50:34.668Z,18.92
2022-11-21T10:53:00.938Z,18.94
2022-11-21T10:55:27.257Z,18.95
2022-11-21T10:57:53.524Z,18.97
2022-11-21T11:00:19.770Z,18.99
2022-11-21T11:02:47.086Z,19.01
2022-11-21T11:05:14.236Z,19.05
2022-11-21T11:07:40.616Z,19.09
2022-11-21T11:10:08.701Z,19.13
2022-11-21T11:12:35.133Z,19.18
2022-11-21T11:15:02.988Z,19.22
2022-11-21T11:17:29.283Z,19.27
2022-11-21T11:19:56.254Z,19.29
2022-11-21T11:22:23.436Z,19.31
2022-11-21T11:24:54.989Z,19.35
2022-11-21T11:27:23.828Z,19.37
2022-11-21T11:29:50.168Z,19.40
2022-11-21T11:32:20.861Z,19.42
2022-11-21T11:34:48.636Z,19.44
2022-11-21T11:37:14.995Z,19.42
2022-11-21T11:39:43.379Z,19.51
2022-11-21T11:42:15.276Z,19.57
2022-11-21T11:44:42.944Z,19.62
2022-11-21T11:47:10.336Z,19.62
2022-11-21T11:49:38.279Z,19.64
2022-11-21T11:52:07.026Z,19.66
2022-11-21T11:54:33.318Z,19.68
2022-11-21T11:56:59.613Z,19.69
2022-11-21T11:59:26.084Z,19.59
2022-11-21T12:01:55.395Z,19.74
2022-11-21T12:04:21.709Z,19.76
2022-11-21T12:09:34.436Z,19.82
2022-11-21T12:12:01.306Z,19.85
2022-11-21T12:14:29.975Z,19.88
2022-11-21T12:16:57.145Z,19.89
2022-11-21T12:19:25.895Z,19.88
2022-11-21T12:21:52.367Z,19.88
2022-11-21T12:24:20.209Z,19.89
2022-11-21T12:26:48.192Z,19.89
2022-11-21T12:29:14.484Z,19.91
2022-11-21T12:31:40.743Z,19.92
2022-11-21T12:34:07.526Z,19.93
2022-11-21T12:36:33.890Z,19.95
2022-11-21T12:39:00.412Z,19.95
2022-11-21T12:41:27.577Z,19.96
2022-11-21T12:43:57.724Z,19.98
2022-11-21T12:46:24.265Z,19.99
2022-11-21T12:48:52.488Z,20.01
2022-11-21T12:51:21.150Z,20.00
2022-11-21T12:53:49.987Z,20.01
2022-11-21T12:56:17.750Z,20.01
2022-11-21T12:58:44.046Z,20.02
2022-11-21T13:01:11.147Z,20.02
2022-11-21T13:03:38.964Z,20.03
2022-11-21T13:06:05.208Z,20.04
2022-11-21T13:08:32.407Z,20.06
2022-11-21T13:11:00.347Z,20.08
2022-11-21T13:13:26.990Z,20.11
2022-11-21T13:15:53.265Z,20.12
2022-11-21T13:18:21.007Z,20.14
2022-11-21T13:20:47.374Z,20.15
2022-11-21T13:23:15.240Z,20.16
2022-11-21T13:25:41.735Z,20.14
2022-11-21T13:28:09.808Z,20.14
2022-11-21T13:30:36.148Z,20.17
2022-11-21T13:33:02.443Z,20.22
2022-11-21T13:35:29.590Z,20.24
2022-11-21T13:37:57.645Z,20.21
2022-11-21T13:40:25.581Z,20.19
2022-11-21T13:43:09.879Z,20.15
2022-11-21T13:45:39.438Z,20.13
2022-11-21T13:48:05.818Z,20.12
2022-11-21T13:50:32.546Z,20.10
2022-11-21T13:52:58.806Z,20.09
2022-11-21T13:55:25.188Z,20.08
2022-11-21T13:57:52.020Z,20.07
2022-11-21T14:00:20.478Z,20.03
2022-11-21T14:02:48.124Z,20.00
2022-11-21T14:05:14.542Z,19.97
2022-11-21T14:07:42.129Z,19.96
2022-11-21T14:10:09.115Z,19.97
2022-11-21T14:12:38.447Z,19.97
2022-11-21T14:15:09.205Z,19.98
2022-11-21T14:17:35.721Z,19.97
2022-11-21T14:20:02.389Z,19.97
2022-11-21T14:22:34.576Z,19.98
2022-11-21T14:25:03.277Z,19.98
2022-11-21T14:27:29.594Z,19.96
2022-11-21T14:29:57.755Z,19.97
2022-11-21T14:32:24.240Z,19.98
2022-11-21T14:34:50.514Z,19.98
2022-11-21T14:37:17.297Z,19.97
2022-11-21T14:39:45.091Z,19.96
2022-11-21T14:42:11.849Z,19.96
2022-11-21T14:44:38.406Z,19.96
2022-11-21T14:47:05.445Z,19.95
2022-11-21T14:49:33.364Z,19.96
2022-11-21T14:51:59.626Z,19.95
2022-11-21T14:54:26.144Z,19.95
2022-11-21T14:56:53.087Z,19.95
2022-11-21T14:59:19.436Z,19.95
2022-11-21T15:01:47.724Z,19.97
2022-11-21T15:04:14.919Z,19.97
2022-11-21T15:06:41.778Z,19.96
2022-11-21T15:11:55.288Z,19.96
2022-11-21T15:14:21.597Z,19.96
2022-11-21T15:16:48.230Z,19.96
2022-11-21T15:19:14.617Z,19.95
2022-11-21T15:21:41.464Z,19.97
2022-11-21T15:24:08.577Z,19.95
2022-11-21T15:26:35.792Z,19.93
2022-11-21T15:29:02.139Z,19.94
2022-11-21T15:31:29.821Z,19.95
2022-11-21T15:34:27.250Z,19.95
2022-11-21T15:36:43.509Z,19.95
2022-11-21T15:39:09.967Z,19.94
2022-11-21T15:41:36.329Z,19.94
2022-11-21T15:44:02.647Z,19.94
2022-11-21T15:46:29.047Z,19.94
2022-11-21T15:48:56.242Z,19.94
2022-11-21T15:51:51.491Z,19.95
2022-11-21T15:54:11.247Z,19.94
2022-11-21T15:56:38.938Z,19.93
2022-11-21T15:59:07.223Z,19.97
2022-11-21T16:01:35.094Z,19.98
2022-11-21T16:04:02.363Z,19.98
2022-11-21T16:06:30.753Z,19.97
2022-11-21T16:08:57.605Z,19.94
2022-11-21T16:11:23.906Z,19.92
2022-11-21T16:13:50.207Z,19.90
2022-11-21T16:16:18.446Z,19.89
2022-11-21T16:18:47.032Z,19.88
2022-11-21T16:21:15.273Z,19.86
2022-11-21T16:23:41.581Z,19.85
2022-11-21T16:26:08.746Z,19.81
2022-11-21T16:28:35.414Z,19.77
2022-11-21T16:31:04.193Z,19.74
2022-11-21T16:33:32.062Z,19.72
2022-11-21T16:35:58.773Z,19.73
2022-11-21T16:38:25.103Z,19.72
2022-11-21T16:40:52.081Z,19.72
2022-11-21T16:43:19.582Z,19.73
2022-11-21T16:45:48.040Z,19.72
2022-11-21T16:48:15.181Z,19.74
2022-11-21T16:50:42.155Z,19.74
2022-11-21T16:53:08.644Z,19.76
2022-11-21T16:55:35.859Z,19.77
2022-11-21T16:58:02.163Z,19.79
2022-11-21T17:00:29.301Z,19.80
2022-11-21T17:02:55.624Z,19.81
2022-11-21T17:05:23.725Z,19.83
2022-11-21T17:07:50.420Z,19.83
2022-11-21T17:10:16.780Z,19.85
2022-11-21T17:12:43.937Z,19.87
2022-11-21T17:15:10.205Z,19.87
2022-11-21T17:17:37.364Z,19.88
2022-11-21T17:20:03.689Z,19.89
2022-11-21T17:22:30.094Z,19.94
2022-11-21T17:24:56.964Z,19.96
2022-11-21T17:27:25.361Z,19.98
2022-11-21T17:29:52.325Z,19.99
2022-11-21T17:32:21.444Z,20.00
2022-11-21T17:34:48.078Z,20.02
2022-11-21T17:37:14.334Z,20.03
2022-11-21T17:39:41.450Z,20.03
2022-11-21T17:42:08.903Z,20.04
2022-11-21T17:44:35.248Z,20.06
2022-11-21T17:47:04.050Z,20.08
2022-11-21T17:49:30.645Z,20.09
2022-11-21T17:51:57.146Z,20.11
2022-11-21T17:54:24.571Z,20.10
2022-11-21T17:56:56.399Z,20.11
2022-11-21T17:59:25.480Z,20.12
2022-11-21T18:01:51.878Z,20.12
2022-11-21T18:04:18.233Z,20.13
2022-11-21T18:06:44.548Z,20.13
2022-11-21T18:09:10.847Z,20.14
2022-11-21T18:11:40.140Z,20.14
2022-11-21T18:14:07.976Z,20.14
2022-11-21T18:16:34.413Z,20.15
2022-11-21T18:19:01.039Z,20.18
2022-11-21T18:21:29.040Z,20.18
2022-11-21T18:23:55.920Z,20.16
2022-11-21T18:26:22.268Z,20.14
2022-11-21T18:28:57.253Z,20.14
2022-11-21T18:31:36.522Z,20.11
2022-11-21T18:34:03.151Z,20.09
2022-11-21T18:36:29.646Z,20.07
2022-11-21T18:39:02.985Z,20.03
2022-11-21T18:41:34.487Z,20.02
2022-11-21T18:44:00.780Z,20.00
2022-11-21T18:46:27.454Z,19.98
2022-11-21T18:49:04.218Z,19.98
2022-11-21T18:51:32.136Z,19.98
2022-11-21T18:53:58.989Z,19.97
2022-11-21T18:56:27.215Z,19.98
2022-11-21T18:58:58.347Z,19.98
2022-11-21T19:01:27.590Z,20.00
2022-11-21T19:03:55.501Z,20.00
2022-11-21T19:06:21.730Z,20.01
2022-11-21T19:08:48.018Z,20.01
2022-11-21T19:11:14.515Z,20.02
2022-11-21T19:13:43.273Z,20.03
2022-11-21T19:16:10.661Z,20.05
2022-11-21T19:18:40.591Z,20.06
2022-11-21T19:21:08.882Z,20.05
2022-11-21T19:23:35.256Z,20.04
2022-11-21T19:26:01.502Z,20.03
2022-11-21T19:28:27.788Z,20.01
2022-11-21T19:30:55.130Z,19.97
2022-11-21T19:33:21.393Z,19.95
2022-11-21T19:35:48.125Z,19.95
2022-11-21T19:38:15.472Z,19.95
2022-11-21T19:40:41.890Z,19.95
2022-11-21T19:43:08.254Z,19.97
2022-11-21T19:45:34.943Z,19.99
2022-11-21T19:48:01.362Z,20.00
2022-11-21T19:50:30.738Z,20.02
2022-11-21T19:52:57.059Z,20.03
2022-11-21T19:55:23.928Z,20.03
2022-11-21T19:57:51.022Z,20.05
2022-11-21T20:00:18.488Z,20.05
2022-11-21T20:02:44.949Z,20.06
2022-11-21T20:05:11.222Z,20.08
2022-11-21T20:07:37.553Z,20.10
2022-11-21T20:10:06.405Z,20.08
2022-11-21T20:12:32.648Z,20.07
2022-11-21T20:14:58.893Z,20.07
2022-11-21T20:17:25.679Z,20.06
2022-11-21T20:19:53.828Z,20.06
2022-11-21T20:22:20.088Z,20.06
2022-11-21T20:24:51.880Z,20.05
2022-11-21T20:27:19.372Z,20.06
2022-11-21T20:29:45.612Z,20.06
2022-11-21T20:32:14.002Z,20.07
2022-11-21T20:34:40.573Z,20.07
2022-11-21T20:37:06.825Z,20.06
2022-11-21T20:39:34.983Z,20.08
2022-11-21T20:42:03.415Z,20.14
2022-11-21T20:45:36.456Z,20.17
2022-11-21T20:47:15.965Z,20.20
2022-11-21T20:49:44.115Z,20.15
2022-11-21T20:54:58.718Z,20.15
2022-11-21T20:57:25.009Z,20.17
2022-11-21T20:59:51.563Z,20.19
2022-11-21T21:02:18.450Z,20.19
2022-11-21T21:04:44.800Z,20.20
2022-11-21T21:07:11.158Z,20.22
2022-11-21T21:09:37.487Z,20.23
2022-11-21T21:12:03.767Z,20.22
2022-11-21T21:14:31.849Z,20.22
2022-11-21T21:16:58.193Z,20.25
2022-11-21T21:19:26.187Z,20.27
2022-11-21T21:21:53.914Z,20.31
2022-11-21T21:24:21.326Z,20.35
2022-11-21T21:26:47.596Z,20.39
2022-11-21T21:29:13.867Z,20.40
2022-11-21T21:31:44.101Z,20.41
2022-11-21T21:34:11.911Z,20.44
2022-11-21T21:36:38.846Z,20.44
2022-11-21T21:39:06.086Z,20.45
2022-11-21T21:41:35.495Z,20.46
2022-11-21T21:44:03.118Z,20.47
2022-11-21T21:46:31.437Z,20.47
2022-11-21T21:48:57.794Z,20.46
2022-11-21T21:51:24.085Z,20.47
2022-11-21T21:53:50.538Z,20.49
2022-11-21T21:56:16.864Z,20.51
2022-11-21T21:58:43.240Z,20.50
2022-11-21T22:01:10.047Z,20.52
2022-11-21T22:03:38.534Z,20.53
2022-11-21T22:06:04.879Z,20.54
2022-11-21T22:08:31.373Z,20.54
2022-11-21T22:10:57.762Z,20.55
2022-11-21T22:13:24.578Z,20.56
2022-11-21T22:15:50.854Z,20.54
2022-11-21T22:18:17.179Z,20.55
2022-11-21T22:20:44.533Z,20.55
2022-11-21T22:23:10.791Z,20.55
2022-11-21T22:25:37.704Z,20.55
2022-11-21T22:28:05.702Z,20.55
2022-11-21T22:30:31.947Z,20.57
2022-11-21T22:32:58.669Z,20.56
2022-11-21T22:35:26.720Z,20.58
2022-11-21T22:37:53.260Z,20.56
2022-11-21T22:40:19.781Z,20.57
2022-11-21T22:42:47.786Z,20.57
2022-11-21T22:45:14.994Z,20.58
2022-11-21T22:47:46.459Z,20.59
2022-11-21T22:50:14.988Z,20.58
2022-11-21T22:52:41.283Z,20.59
2022-11-21T22:55:07.576Z,20.60
2022-11-21T22:57:33.878Z,20.60
2022-11-21T23:00:00.190Z,20.59
2022-11-21T23:02:26.682Z,20.59
2022-11-21T23:04:53.647Z,20.60
2022-11-21T23:07:21.340Z,20.60
2022-11-21T23:09:47.651Z,20.60
2022-11-21T23:12:13.960Z,20.60
2022-11-21T23:14:40.329Z,20.60
2022-11-21T23:17:06.618Z,20.60
2022-11-21T23:19:33.946Z,20.47
2022-11-21T23:22:02.450Z,19.47
2022-11-21T23:24:28.687Z,18.50
2022-11-21T23:26:54.939Z,17.78
2022-11-21T23:29:22.223Z,17.16
2022-11-21T23:31:48.638Z,16.53
2022-11-21T23:34:14.953Z,16.18
2022-11-21T23:36:42.360Z,15.64
2022-11-21T23:39:09.172Z,15.34
2022-11-21T23:41:35.747Z,14.97
2022-11-21T23:44:02.320Z,14.69
2022-11-21T23:46:28.798Z,14.52
2022-11-21T23:48:55.076Z,14.53
2022-11-21T23:51:21.341Z,14.41
2022-11-21T23:53:48.815Z,14.24
2022-11-21T23:56:15.248Z,14.15
2022-11-21T23:58:41.572Z,13.79
